Time;durP1;ratioP1;P1;durP2;ratioP2;P2;SDS_P1;SDS_P2;PMS_P1;PMS_P2;Temp;Humidity;BMP_temperature;BMP_pressure;BME280_temperature;BME280_humidity;BME280_pressure;Samples;Min_cycle;Max_cycle;Signal;HPM_P1;HPM_P2
2022/06/21 00:00:11;;;;;;;9.63;6.28;;;28.30;66.40;;;;;;5061153;28;20070;-81
2022/06/21 00:02:37;;;;;;;6.90;6.20;;;28.70;65.80;;;;;;5052495;28;20040;-79
2022/06/21 00:05:05;;;;;;;10.23;5.85;;;28.90;64.70;;;;;;5046140;28;20057;-79
2022/06/21 00:07:31;;;;;;;8.63;5.78;;;29.00;64.10;;;;;;5051187;28;20033;-79
2022/06/21 00:09:58;;;;;;;9.55;5.53;;;29.10;63.70;;;;;;5048588;28;20021;-83
2022/06/21 00:12:24;;;;;;;9.05;5.80;;;29.10;63.50;;;;;;5054183;28;20031;-80
2022/06/21 00:14:50;;;;;;;10.48;6.00;;;29.30;63.20;;;;;;5065703;28;20032;-78
2022/06/21 00:17:20;;;;;;;10.02;5.80;;;29.30;63.20;;;;;;5075011;28;20099;-85
2022/06/21 00:19:46;;;;;;;10.63;6.45;;;29.30;63.40;;;;;;5054550;28;20032;-79
2022/06/21 00:22:18;;;;;;;9.57;6.40;;;29.20;63.40;;;;;;5055578;28;20138;-80
2022/06/21 00:24:44;;;;;;;8.07;6.55;;;29.20;63.30;;;;;;5074885;28;20093;-75
2022/06/21 00:27:15;;;;;;;9.25;6.53;;;29.00;64.20;;;;;;5075509;28;20043;-85
2022/06/21 00:29:41;;;;;;;7.75;5.95;;;28.80;64.60;;;;;;5056676;28;20501;-82
2022/06/21 00:32:12;;;;;;;8.20;6.25;;;28.50;65.60;;;;;;5055208;28;20028;-84
2022/06/21 00:34:38;;;;;;;8.32;5.55;;;28.10;66.30;;;;;;5062311;28;20164;-82
2022/06/21 00:37:04;;;;;;;9.55;6.25;;;28.00;66.60;;;;;;5058210;28;20028;-80
2022/06/21 00:39:29;;;;;;;8.27;6.30;;;27.70;67.60;;;;;;5074265;28;20406;-79
2022/06/21 00:42:01;;;;;;;9.30;6.35;;;27.50;68.10;;;;;;5056727;28;20020;-78
2022/06/21 00:44:39;;;;;;;7.75;5.68;;;27.60;68.10;;;;;;5070396;28;20025;-86
2022/06/21 00:47:14;;;;;;;9.07;6.07;;;27.50;68.00;;;;;;5055730;28;20033;-78
2022/06/21 00:49:52;;;;;;;12.68;6.80;;;27.50;68.00;;;;;;5059210;28;20372;-82
2022/06/21 00:52:23;;;;;;;7.45;5.45;;;27.60;67.50;;;;;;5050331;28;20071;-80
2022/06/21 00:54:59;;;;;;;9.55;5.60;;;27.40;67.10;;;;;;5061786;28;20021;-81
2022/06/21 00:57:31;;;;;;;8.20;5.38;;;27.30;66.70;;;;;;5037810;28;20025;-78
2022/06/21 01:00:24;;;;;;;9.02;4.90;;;27.50;66.00;;;;;;5068748;28;20479;-78
2022/06/21 01:02:50;;;;;;;7.93;5.18;;;27.30;66.10;;;;;;5046076;28;20063;-78
2022/06/21 01:05:16;;;;;;;12.00;5.40;;;27.30;66.10;;;;;;5066450;28;20048;-77
2022/06/21 01:07:42;;;;;;;7.47;5.32;;;27.30;65.80;;;;;;5050254;28;20036;-81
2022/06/21 01:10:15;;;;;;;7.55;5.13;;;27.40;65.90;;;;;;5040403;28;20673;-87
2022/06/21 01:12:50;;;;;;;7.45;5.22;;;27.40;65.80;;;;;;5041121;28;20027;-81
2022/06/21 01:15:29;;;;;;;7.10;5.00;;;27.30;65.60;;;;;;5055876;28;20035;-79
2022/06/21 01:18:00;;;;;;;6.30;4.97;;;27.20;66.00;;;;;;5043166;28;20028;-79
2022/06/21 01:20:28;;;;;;;8.30;4.97;;;27.00;66.40;;;;;;5056029;28;20166;-79
2022/06/21 01:23:16;;;;;;;9.18;5.22;;;26.90;66.60;;;;;;5074107;28;20043;-79
2022/06/21 01:26:00;;;;;;;8.13;5.68;;;26.80;66.50;;;;;;5054575;28;20127;-80
2022/06/21 01:28:26;;;;;;;8.52;5.45;;;26.30;68.30;;;;;;5072702;28;20047;-80
2022/06/21 01:30:56;;;;;;;8.48;6.13;;;26.10;69.00;;;;;;5057337;28;20115;-75
2022/06/21 01:33:31;;;;;;;9.73;5.60;;;26.10;68.90;;;;;;5045635;28;20037;-80
2022/06/21 01:36:01;;;;;;;9.70;5.47;;;26.40;68.20;;;;;;5058125;28;20036;-83
2022/06/21 01:38:32;;;;;;;10.57;5.70;;;26.40;68.20;;;;;;5056212;28;20032;-79
2022/06/21 01:41:08;;;;;;;12.75;5.75;;;26.20;68.90;;;;;;5074839;28;20074;-83
2022/06/21 01:43:37;;;;;;;12.45;5.85;;;26.40;68.40;;;;;;5055897;28;20033;-78
2022/06/21 01:46:08;;;;;;;13.43;6.03;;;26.40;68.10;;;;;;5065378;28;20024;-80
2022/06/21 01:48:48;;;;;;;7.90;5.78;;;26.30;68.00;;;;;;5055225;28;20293;-82
2022/06/21 01:51:28;;;;;;;8.48;5.80;;;26.20;68.30;;;;;;5054224;28;20052;-79
2022/06/21 01:53:55;;;;;;;10.98;6.00;;;26.40;67.70;;;;;;5067227;28;20181;-82
2022/06/21 01:56:28;;;;;;;8.90;6.20;;;26.40;67.50;;;;;;5060029;28;20043;-84
2022/06/21 01:59:05;;;;;;;10.77;5.93;;;26.20;68.20;;;;;;5055849;28;20051;-79
2022/06/21 02:01:38;;;;;;;9.80;5.97;;;26.40;67.70;;;;;;5072286;28;20029;-79
2022/06/21 02:04:07;;;;;;;8.68;6.32;;;26.40;67.60;;;;;;5040703;28;20024;-79
2022/06/21 02:06:37;;;;;;;7.53;5.63;;;26.10;68.00;;;;;;5046277;28;20174;-82
2022/06/21 02:09:05;;;;;;;;;;;26.20;67.80;;;;;;5073748;28;20036;-76
2022/06/21 02:11:37;;;;;;;12.23;6.40;;;26.20;67.90;;;;;;5073460;28;19904;-81
2022/06/21 02:14:29;;;;;;;12.38;6.40;;;26.00;68.00;;;;;;5057895;28;20017;-78
2022/06/21 02:17:15;;;;;;;8.13;6.28;;;25.90;68.40;;;;;;5056178;28;20032;-83
2022/06/21 02:19:49;;;;;;;10.82;6.53;;;26.10;67.60;;;;;;5054358;28;20044;-82
2022/06/21 02:22:22;;;;;;;10.38;6.47;;;26.20;67.80;;;;;;5061681;28;20021;-75
2022/06/21 02:24:50;;;;;;;9.02;6.50;;;26.40;67.50;;;;;;5045945;28;20050;-77
2022/06/21 02:27:18;;;;;;;12.43;6.68;;;26.50;67.00;;;;;;5054376;28;20033;-84
2022/06/21 02:29:50;;;;;;;8.25;6.40;;;26.30;67.00;;;;;;5057839;28;20119;-79
2022/06/21 02:32:27;;;;;;;9.35;6.75;;;26.20;67.50;;;;;;5064181;28;20028;-79
2022/06/21 02:35:06;;;;;;;13.23;6.57;;;26.10;66.90;;;;;;5057611;28;20048;-78
2022/06/21 02:37:33;;;;;;;10.35;6.65;;;25.80;67.60;;;;;;5066255;28;20506;-78
2022/06/21 02:40:02;;;;;;;10.20;7.22;;;25.60;67.80;;;;;;5049382;28;20032;-79
2022/06/21 02:42:32;;;;;;;9.60;6.78;;;25.60;68.40;;;;;;5048433;28;20025;-81
2022/06/21 02:45:07;;;;;;;9.52;6.40;;;25.70;67.90;;;;;;5046243;28;20032;-82
2022/06/21 02:47:41;;;;;;;8.43;6.47;;;25.80;67.40;;;;;;5054642;28;20510;-80
2022/06/21 02:50:20;;;;;;;8.85;6.18;;;25.70;67.10;;;;;;5073040;28;20074;-78
2022/06/21 02:52:46;;;;;;;10.52;6.53;;;25.80;66.40;;;;;;5069087;28;20534;-77
2022/06/21 02:55:42;;;;;;;7.93;6.03;;;26.00;66.00;;;;;;5046969;28;20032;-77
2022/06/21 02:58:23;;;;;;;8.90;6.60;;;25.90;66.00;;;;;;5042833;28;20021;-77
2022/06/21 03:00:50;;;;;;;10.68;6.93;;;25.70;66.50;;;;;;5049209;28;20036;-80
2022/06/21 03:03:20;;;;;;;9.38;6.55;;;25.50;66.70;;;;;;5068681;28;20116;-83
2022/06/21 03:05:50;;;;;;;8.43;6.75;;;25.70;66.50;;;;;;5068311;28;20032;-79
2022/06/21 03:08:17;;;;;;;10.00;6.35;;;25.90;66.00;;;;;;5071005;28;20044;-76
2022/06/21 03:10:46;;;;;;;8.13;6.75;;;25.80;65.80;;;;;;5062542;28;20063;-76
2022/06/21 03:13:28;;;;;;;9.02;6.80;;;25.90;65.50;;;;;;5061599;28;20051;-83
2022/06/21 03:15:59;;;;;;;8.73;6.68;;;26.00;65.20;;;;;;5054021;28;20036;-78
2022/06/21 03:18:30;;;;;;;8.88;6.60;;;26.10;64.70;;;;;;5034610;28;20025;-77
2022/06/21 03:20:56;;;;;;;9.00;6.45;;;26.00;64.80;;;;;;5034786;28;20064;-77
2022/06/21 03:23:22;;;;;;;7.45;6.18;;;25.90;64.80;;;;;;5038132;28;20052;-78
2022/06/21 03:25:57;;;;;;;7.60;6.00;;;26.00;64.60;;;;;;5069367;28;20028;-76
2022/06/21 03:28:36;;;;;;;8.35;5.60;;;25.90;64.60;;;;;;5050742;28;20045;-76
2022/06/21 03:31:10;;;;;;;7.00;5.60;;;25.60;64.90;;;;;;5053715;28;20498;-86
2022/06/21 03:33:38;;;;;;;7.28;5.60;;;25.60;64.40;;;;;;5052144;28;20031;-78
2022/06/21 03:36:07;;;;;;;6.93;5.40;;;25.50;64.60;;;;;;5063718;28;20029;-78
2022/06/21 03:38:35;;;;;;;8.20;5.22;;;25.50;64.20;;;;;;5060975;28;20050;-79
2022/06/21 03:44:00;;;;;;;8.70;5.40;;;25.80;63.10;;;;;;5071843;28;20398;-84
2022/06/21 03:46:32;;;;;;;8.10;5.32;;;25.80;62.50;;;;;;5072742;28;20016;-85
2022/06/21 03:49:02;;;;;;;7.10;5.20;;;25.90;62.90;;;;;;5040487;28;20051;-77
2022/06/21 03:51:39;;;;;;;8.88;5.40;;;25.90;62.50;;;;;;5057990;28;20038;-76
2022/06/21 03:54:42;;;;;;;5.63;4.70;;;25.70;63.10;;;;;;5054290;28;20036;-80
2022/06/21 03:57:28;;;;;;;6.15;4.97;;;25.50;63.20;;;;;;5057290;28;20119;-79
2022/06/21 04:00:09;;;;;;;6.75;4.70;;;25.50;63.00;;;;;;5074783;28;20037;-76
2022/06/21 04:02:42;;;;;;;6.35;4.97;;;25.50;62.60;;;;;;5042712;28;20064;-78
2022/06/21 04:05:26;;;;;;;5.80;4.68;;;25.50;62.30;;;;;;5067601;28;20025;-76
2022/06/21 04:07:52;;;;;;;7.32;4.15;;;25.50;63.20;;;;;;5050288;28;20037;-79
2022/06/21 04:10:40;;;;;;;6.63;4.22;;;25.50;62.30;;;;;;5076320;28;20356;-77
2022/06/21 04:13:16;;;;;;;5.38;4.10;;;25.00;62.70;;;;;;5058785;28;20029;-78
2022/06/21 04:16:00;;;;;;;5.03;3.53;;;24.90;63.30;;;;;;5067753;28;20025;-79
2022/06/21 04:18:32;;;;;;;4.68;3.60;;;25.10;62.20;;;;;;5038538;28;20036;-76
2022/06/21 04:21:08;;;;;;;4.55;3.30;;;24.90;62.10;;;;;;5038192;28;20182;-80
2022/06/21 04:23:56;;;;;;;5.25;3.40;;;24.90;62.30;;;;;;5055794;28;20411;-85
2022/06/21 04:26:29;;;;;;;5.60;3.38;;;25.00;61.40;;;;;;5056140;28;20028;-80
2022/06/21 04:29:01;;;;;;;6.25;3.30;;;25.00;62.00;;;;;;5063168;28;20056;-78
2022/06/21 04:31:30;;;;;;;4.25;3.10;;;24.70;61.90;;;;;;5057755;28;20065;-76
2022/06/21 04:34:07;;;;;;;7.43;2.80;;;24.90;61.30;;;;;;5041686;28;20025;-84
2022/06/21 04:36:38;;;;;;;4.10;3.20;;;25.00;60.80;;;;;;5046898;28;20437;-79
2022/06/21 04:39:09;;;;;;;;;;;25.00;60.30;;;;;;5058184;28;20491;-77
2022/06/21 04:41:40;;;;;;;5.07;3.38;;;24.90;59.80;;;;;;5075343;28;19904;-77
2022/06/21 04:44:22;;;;;;;3.90;2.80;;;24.90;59.40;;;;;;5053286;28;20032;-77
2022/06/21 04:46:58;;;;;;;3.83;2.67;;;24.90;59.50;;;;;;5074885;28;20091;-75
2022/06/21 04:49:41;;;;;;;3.83;2.47;;;24.70;60.00;;;;;;5057734;28;20398;-77
2022/06/21 04:52:12;;;;;;;3.45;2.50;;;24.30;59.40;;;;;;5049052;28;20059;-83
2022/06/21 04:54:39;;;;;;;3.42;2.30;;;24.20;59.70;;;;;;5037169;28;20033;-77
2022/06/21 04:57:08;;;;;;;4.05;2.70;;;24.20;59.90;;;;;;5038212;28;20482;-79
2022/06/21 04:59:43;;;;;;;3.87;2.50;;;24.40;58.90;;;;;;5037596;28;20025;-74
2022/06/21 05:02:20;;;;;;;4.45;2.40;;;24.60;58.10;;;;;;5037360;28;20025;-77
2022/06/21 05:05:09;;;;;;;3.38;2.30;;;24.60;58.30;;;;;;5037571;28;20017;-77
2022/06/21 05:07:44;;;;;;;3.28;2.20;;;24.50;57.70;;;;;;5037402;28;20057;-73
2022/06/21 05:10:21;;;;;;;3.90;2.30;;;24.40;57.80;;;;;;5050676;28;20036;-84
2022/06/21 05:12:50;;;;;;;3.65;2.35;;;24.20;58.30;;;;;;5055486;28;20337;-82
2022/06/21 05:15:23;;;;;;;3.47;2.47;;;24.30;58.40;;;;;;5055384;28;20021;-77
2022/06/21 05:18:17;;;;;;;7.70;2.45;;;24.20;57.60;;;;;;5055477;28;20407;-79
2022/06/21 05:20:52;;;;;;;4.60;2.35;;;24.40;57.30;;;;;;5046316;28;20032;-82
2022/06/21 05:23:20;;;;;;;5.65;2.08;;;24.50;55.30;;;;;;5056965;28;20024;-80
2022/06/21 05:25:47;;;;;;;3.97;2.17;;;24.60;55.40;;;;;;5057031;28;20027;-83
2022/06/21 05:28:39;;;;;;;3.35;2.20;;;24.80;55.60;;;;;;5074958;28;20367;-84
2022/06/21 05:31:17;;;;;;;5.63;2.10;;;24.60;54.90;;;;;;5056844;28;20127;-81
2022/06/21 05:34:20;;;;;;;3.20;1.90;;;24.70;55.10;;;;;;5057101;28;20058;-76
2022/06/21 05:36:57;;;;;;;3.10;1.98;;;24.90;55.50;;;;;;5074996;28;20095;-84
2022/06/21 05:39:30;;;;;;;3.25;2.15;;;24.90;54.40;;;;;;5056967;28;20498;-78
2022/06/21 05:41:59;;;;;;;3.40;1.90;;;24.90;54.30;;;;;;5057024;28;20020;-76
2022/06/21 05:44:34;;;;;;;2.72;1.83;;;25.10;53.90;;;;;;5056655;28;20035;-80
2022/06/21 05:47:04;;;;;;;3.30;2.00;;;25.20;53.60;;;;;;5056726;28;20462;-79
2022/06/21 05:49:32;;;;;;;4.30;2.00;;;25.10;54.00;;;;;;5056261;28;20056;-77
2022/06/21 05:52:01;;;;;;;3.00;1.90;;;25.30;53.90;;;;;;5056594;28;20020;-78
2022/06/21 05:54:35;;;;;;;2.95;1.90;;;25.00;51.80;;;;;;5074348;28;20052;-78
2022/06/21 05:57:04;;;;;;;2.95;2.03;;;25.10;52.60;;;;;;5074220;28;20028;-79
2022/06/21 05:59:30;;;;;;;4.82;1.90;;;25.30;52.50;;;;;;5074256;28;20025;-82
2022/06/21 06:02:40;;;;;;;2.60;1.67;;;24.60;51.40;;;;;;5074492;28;20374;-76
2022/06/21 06:05:15;;;;;;;3.05;1.65;;;24.30;52.20;;;;;;5047396;28;20075;-82
2022/06/21 06:07:46;;;;;;;3.13;1.85;;;24.40;52.60;;;;;;5056162;28;20489;-79
2022/06/21 06:10:13;;;;;;;6.93;1.80;;;24.60;52.60;;;;;;5073673;28;20036;-75
2022/06/21 06:12:49;;;;;;;2.95;1.88;;;25.40;51.90;;;;;;5073102;28;20021;-77
2022/06/21 06:15:49;;;;;;;3.58;1.73;;;26.20;50.90;;;;;;5073566;28;20032;-76
2022/06/21 06:18:30;;;;;;;3.77;2.03;;;26.30;49.40;;;;;;5069822;28;20048;-76
2022/06/21 06:21:11;;;;;;;6.10;1.80;;;26.50;50.30;;;;;;5073331;28;20111;-81
2022/06/21 06:23:49;;;;;;;3.00;1.83;;;26.30;50.70;;;;;;5055778;28;20107;-77
2022/06/21 06:26:18;;;;;;;3.15;1.80;;;26.10;49.80;;;;;;5072882;28;20024;-74
2022/06/21 06:29:05;;;;;;;3.30;1.92;;;26.00;49.60;;;;;;5071417;28;20063;-81
2022/06/21 06:31:55;;;;;;;4.35;1.80;;;26.10;50.20;;;;;;5055315;28;20042;-79
2022/06/21 06:34:24;;;;;;;;;;;26.00;49.30;;;;;;5075588;28;20052;-76
2022/06/21 06:37:04;;;;;;;3.03;1.80;;;25.70;50.60;;;;;;5055290;28;19962;-78
2022/06/21 06:39:33;;;;;;;13.73;1.80;;;25.90;50.00;;;;;;5072593;28;20115;-79
2022/06/21 06:42:29;;;;;;;3.78;2.00;;;25.90;49.70;;;;;;5073287;28;20082;-73
2022/06/21 06:44:59;;;;;;;3.63;2.00;;;26.00;49.30;;;;;;5073488;28;20028;-83
2022/06/21 06:47:39;;;;;;;3.67;1.80;;;25.90;49.20;;;;;;5055661;28;20052;-79
2022/06/21 06:50:22;;;;;;;2.80;1.90;;;25.90;49.90;;;;;;5073324;28;20198;-83
2022/06/21 06:53:01;;;;;;;12.50;5.75;;;25.70;48.90;;;;;;5054279;28;20040;-75
2022/06/21 06:55:36;;;;;;;3.50;2.00;;;25.50;49.80;;;;;;5067456;28;20414;-80
2022/06/21 06:58:20;;;;;;;5.72;3.20;;;25.90;49.80;;;;;;5054072;28;20162;-77
2022/06/21 07:00:53;;;;;;;4.35;1.85;;;26.50;49.30;;;;;;5072691;28;20387;-78
2022/06/21 07:03:27;;;;;;;6.97;1.83;;;26.80;48.80;;;;;;5073509;28;20426;-80
2022/06/21 07:05:59;;;;;;;6.30;2.20;;;26.50;49.00;;;;;;5054999;28;20024;-78
2022/06/21 07:09:02;;;;;;;4.28;2.33;;;26.80;49.10;;;;;;5055341;28;20040;-77
2022/06/21 07:11:43;;;;;;;5.35;2.28;;;26.80;47.00;;;;;;5073177;28;20020;-76
2022/06/21 07:14:22;;;;;;;6.80;2.03;;;26.80;45.80;;;;;;5055245;28;20090;-79
2022/06/21 07:16:58;;;;;;;3.45;2.25;;;25.90;47.60;;;;;;5055540;28;20099;-78
2022/06/21 07:19:24;;;;;;;4.15;2.88;;;26.00;48.90;;;;;;5073149;28;20526;-77
2022/06/21 07:21:49;;;;;;;3.10;1.92;;;26.50;48.70;;;;;;5055456;28;20047;-86
2022/06/21 07:24:18;;;;;;;14.70;10.98;;;26.70;46.60;;;;;;5073033;28;20410;-82
2022/06/21 07:27:07;;;;;;;5.50;2.30;;;26.80;47.30;;;;;;5073119;28;20025;-78
2022/06/21 07:29:41;;;;;;;3.58;1.90;;;26.70;46.60;;;;;;5072792;28;20101;-79
2022/06/21 07:32:12;;;;;;;4.50;2.00;;;26.60;46.00;;;;;;5055196;28;20024;-78
2022/06/21 07:34:47;;;;;;;5.13;2.33;;;26.20;45.00;;;;;;5072626;28;20395;-77
2022/06/21 07:37:20;;;;;;;16.00;10.68;;;26.00;45.60;;;;;;5072900;28;20021;-81
2022/06/21 07:40:19;;;;;;;4.18;2.10;;;25.40;44.50;;;;;;5072972;28;20020;-77
2022/06/21 07:42:48;;;;;;;7.60;2.55;;;25.40;45.80;;;;;;5061681;28;20067;-75
2022/06/21 07:45:23;;;;;;;5.30;3.35;;;25.70;45.10;;;;;;5072912;28;20063;-75
2022/06/21 07:48:18;;;;;;;4.53;2.00;;;26.30;45.30;;;;;;5072417;28;20036;-81
2022/06/21 07:50:53;;;;;;;6.28;2.70;;;26.90;45.70;;;;;;5058494;28;20044;-80
2022/06/21 07:53:52;;;;;;;5.63;2.00;;;27.20;44.30;;;;;;5072740;28;20119;-79
2022/06/21 07:56:22;;;;;;;7.60;2.23;;;27.40;44.40;;;;;;5050360;28;20042;-81
2022/06/21 07:58:50;;;;;;;4.80;2.10;;;26.90;43.80;;;;;;5072880;28;20027;-79
2022/06/21 08:07:22;;;;;;;5.63;1.83;;;26.50;43.20;;;;;;5072823;28;20032;-78
2022/06/21 08:10:31;;;;;;;5.22;2.10;;;26.40;43.50;;;;;;5072234;28;20036;-82
2022/06/21 08:12:56;;;;;;;3.88;1.88;;;26.50;43.10;;;;;;5044076;28;20447;-80
2022/06/21 08:15:28;;;;;;;5.13;2.50;;;26.10;42.40;;;;;;5054648;28;20570;-80
2022/06/21 08:18:02;;;;;;;4.70;2.10;;;26.00;43.10;;;;;;5072537;28;20078;-78
2022/06/21 08:20:38;;;;;;;4.30;2.28;;;26.10;44.40;;;;;;5072357;28;20090;-81
2022/06/21 08:23:08;;;;;;;4.22;2.40;;;26.30;44.50;;;;;;5072587;28;20028;-76
2022/06/21 08:25:56;;;;;;;3.83;1.95;;;26.30;44.80;;;;;;5072376;28;20021;-79
2022/06/21 08:29:03;;;;;;;5.65;2.22;;;26.40;44.70;;;;;;5071963;28;20032;-79
2022/06/21 08:31:35;;;;;;;3.78;2.15;;;27.20;44.60;;;;;;5072639;28;20028;-78
2022/06/21 08:34:07;;;;;;;5.80;2.53;;;27.20;44.00;;;;;;5054233;28;20060;-78
2022/06/21 08:36:40;;;;;;;4.30;1.98;;;27.00;43.40;;;;;;5074922;28;20017;-77
2022/06/21 08:39:19;;;;;;;3.25;1.70;;;27.10;43.30;;;;;;5075721;28;20060;-80
2022/06/21 08:42:15;;;;;;;3.75;1.67;;;27.40;43.40;;;;;;5058220;28;20017;-87
2022/06/21 08:48:02;;;;;;;7.47;2.17;;;27.70;43.80;;;;;;5075659;28;20069;-76
2022/06/21 08:50:39;;;;;;;4.60;2.08;;;28.10;43.50;;;;;;5075558;28;20399;-77
2022/06/21 08:53:17;;;;;;;5.63;2.50;;;28.10;44.00;;;;;;5075317;28;20028;-74
2022/06/21 08:56:02;;;;;;;6.47;2.40;;;28.40;44.40;;;;;;5075807;28;20017;-81
2022/06/21 08:58:35;;;;;;;7.80;4.00;;;28.40;42.60;;;;;;5057649;28;20107;-80
2022/06/21 09:01:51;;;;;;;7.82;5.00;;;28.40;43.40;;;;;;5075615;28;20028;-79
2022/06/21 09:04:28;;;;;;;6.05;2.08;;;28.40;41.50;;;;;;5075730;28;20082;-82
2022/06/21 09:07:30;;;;;;;6.45;1.80;;;27.90;42.50;;;;;;5075571;28;20024;-76
2022/06/21 09:10:17;;;;;;;22.63;11.48;;;27.80;43.70;;;;;;5057319;28;20039;-80
2022/06/21 09:13:01;;;;;;;6.45;3.17;;;28.30;43.50;;;;;;5057326;28;20020;-75
2022/06/21 09:15:33;;;;;;;20.15;9.43;;;28.30;44.70;;;;;;5075520;28;20028;-80
2022/06/21 09:18:38;;;;;;;5.40;3.10;;;28.30;43.70;;;;;;5057241;28;20111;-79
2022/06/21 09:21:31;;;;;;;6.05;2.30;;;28.10;41.50;;;;;;5056927;28;20110;-81
2022/06/21 09:24:20;;;;;;;3.83;1.90;;;28.20;41.70;;;;;;5056925;28;20044;-80
2022/06/21 09:27:09;;;;;;;4.03;2.05;;;28.40;42.40;;;;;;5075116;28;20028;-77
2022/06/21 09:29:47;;;;;;;7.00;4.00;;;28.00;41.80;;;;;;5046263;28;20093;-79
2022/06/21 09:32:41;;;;;;;5.47;2.80;;;28.40;42.30;;;;;;5057047;28;20024;-76
2022/06/21 09:35:17;;;;;;;3.53;1.80;;;28.40;42.60;;;;;;5075087;28;20471;-81
2022/06/21 09:37:59;;;;;;;3.10;1.70;;;28.20;42.70;;;;;;5074897;28;20033;-83
2022/06/21 09:40:36;;;;;;;3.63;2.58;;;28.20;42.80;;;;;;5057117;28;20021;-76
2022/06/21 09:43:17;;;;;;;4.13;2.00;;;28.20;41.90;;;;;;5074436;28;20024;-81
2022/06/21 09:45:50;;;;;;;5.80;1.98;;;27.90;43.40;;;;;;5056804;28;20090;-81
2022/06/21 09:48:55;;;;;;;5.22;1.83;;;28.00;43.60;;;;;;5056654;28;20085;-77
2022/06/21 09:51:41;;;;;;;3.10;1.70;;;28.30;43.20;;;;;;5057126;28;20035;-87
2022/06/21 09:54:15;;;;;;;4.20;2.05;;;28.50;43.70;;;;;;5074303;28;20519;-79
2022/06/21 09:56:54;;;;;;;5.07;1.80;;;29.20;43.30;;;;;;5056312;28;20071;-79
2022/06/21 09:59:40;;;;;;;3.70;1.60;;;29.70;43.00;;;;;;5074234;28;20029;-76
2022/06/21 10:02:12;;;;;;;2.90;1.50;;;29.80;42.90;;;;;;5074635;28;20048;-77
2022/06/21 10:05:03;;;;;;;6.85;1.80;;;29.30;41.80;;;;;;5056618;28;20432;-79
2022/06/21 10:07:39;;;;;;;3.80;1.70;;;29.60;43.30;;;;;;5074341;28;20024;-82
2022/06/21 10:10:39;;;;;;;5.72;1.70;;;29.50;41.90;;;;;;5074292;28;20036;-79
2022/06/21 10:13:22;;;;;;;2.97;1.60;;;29.40;41.30;;;;;;5056459;28;20029;-77
2022/06/21 10:16:19;;;;;;;9.43;2.10;;;29.10;39.60;;;;;;5074349;28;20467;-82
2022/06/21 10:18:53;;;;;;;3.97;2.38;;;29.10;41.70;;;;;;5056569;28;20028;-84
2022/06/21 10:21:28;;;;;;;3.45;1.77;;;29.40;41.10;;;;;;5074220;28;20029;-79
2022/06/21 10:24:39;;;;;;;3.25;1.70;;;29.40;42.40;;;;;;5056316;28;20029;-82
2022/06/21 10:27:21;;;;;;;6.07;2.03;;;29.90;41.90;;;;;;4992858;28;20145;-81
2022/06/21 10:30:20;;;;;;;6.68;1.88;;;29.60;40.80;;;;;;4976038;28;20560;-77
2022/06/21 10:32:48;;;;;;;4.80;1.50;;;29.30;40.70;;;;;;4976721;28;20065;-79
2022/06/21 10:35:33;;;;;;;7.03;3.70;;;29.40;41.20;;;;;;4992593;28;20473;-79
2022/06/21 10:38:27;;;;;;;5.65;1.50;;;29.00;40.90;;;;;;4976314;28;20022;-79
2022/06/21 10:41:10;;;;;;;5.38;1.67;;;28.90;40.30;;;;;;4970847;28;20096;-76
2022/06/21 10:43:50;;;;;;;4.85;2.28;;;29.30;40.60;;;;;;4975930;28;20066;-80
2022/06/21 10:46:37;;;;;;;3.70;1.50;;;29.60;40.40;;;;;;4992628;28;20121;-80
2022/06/21 10:49:22;;;;;;;4.95;1.60;;;29.90;40.40;;;;;;4992345;28;20073;-82
2022/06/21 10:52:32;;;;;;;4.60;1.65;;;30.20;41.50;;;;;;4976220;28;20031;-80
2022/06/21 10:55:10;;;;;;;4.18;1.60;;;30.50;40.80;;;;;;4992030;28;20061;-80
2022/06/21 10:57:45;;;;;;;3.72;1.50;;;30.60;40.80;;;;;;4992171;28;20037;-77
2022/06/21 11:03:19;;;;;;;5.75;1.90;;;30.40;40.30;;;;;;5073655;28;20027;-85
2022/06/21 11:06:06;;;;;;;3.30;1.70;;;30.30;42.00;;;;;;5073442;28;20429;-81
2022/06/21 11:08:32;;;;;;;3.80;1.48;;;30.20;39.50;;;;;;5073491;28;20029;-79
2022/06/21 11:11:03;;;;;;;4.85;1.70;;;29.90;40.80;;;;;;5055244;28;20027;-79
2022/06/21 11:13:34;;;;;;;2.97;1.60;;;29.60;40.90;;;;;;5055318;28;20069;-78
2022/06/21 11:16:31;;;;;;;3.05;1.50;;;29.70;40.90;;;;;;5073299;28;20016;-83
2022/06/21 11:19:18;;;;;;;4.40;1.33;;;29.40;40.90;;;;;;5073322;28;20029;-78
2022/06/21 11:21:52;;;;;;;100.00;5.38;;;28.70;41.30;;;;;;5073676;28;20559;-87
2022/06/21 11:25:01;;;;;;;3.13;1.45;;;28.70;41.30;;;;;;5055276;28;20020;-82
2022/06/21 11:27:56;;;;;;;2.80;1.50;;;28.70;41.40;;;;;;5046038;28;20079;-82
2022/06/21 11:30:49;;;;;;;2.20;1.27;;;28.70;42.60;;;;;;5055137;28;20044;-80
2022/06/21 11:33:39;;;;;;;3.15;1.50;;;28.90;41.00;;;;;;5059547;28;20072;-80
2022/06/21 11:36:19;;;;;;;7.90;1.60;;;28.60;41.10;;;;;;5054884;28;20360;-80
2022/06/21 11:39:06;;;;;;;9.10;1.60;;;28.80;41.00;;;;;;5055047;28;20115;-81
2022/06/21 11:42:08;;;;;;;3.20;1.40;;;28.50;40.30;;;;;;5054739;28;20119;-84
2022/06/21 11:44:43;;;;;;;4.40;1.58;;;28.70;41.10;;;;;;5069557;28;20044;-79
2022/06/21 11:47:39;;;;;;;3.15;1.58;;;29.40;42.60;;;;;;5073073;28;20032;-83
2022/06/21 11:50:13;;;;;;;4.40;1.50;;;29.50;41.90;;;;;;5054953;28;20074;-76
2022/06/21 11:53:10;;;;;;;4.55;1.60;;;29.70;42.00;;;;;;5072827;28;20082;-80
2022/06/21 11:55:39;;;;;;;4.55;1.70;;;30.00;42.40;;;;;;5055010;28;20023;-82
2022/06/21 11:58:10;;;;;;;3.15;1.67;;;29.40;41.40;;;;;;5073075;28;20082;-79
2022/06/21 12:00:36;;;;;;;2.90;1.50;;;29.70;42.50;;;;;;5054693;28;20074;-79
2022/06/21 12:03:04;;;;;;;4.15;1.65;;;29.80;41.40;;;;;;5072726;28;20024;-81
2022/06/21 12:05:36;;;;;;;2.83;1.50;;;29.70;41.30;;;;;;5054728;28;20029;-79
2022/06/21 12:08:17;;;;;;;4.45;1.70;;;30.00;40.70;;;;;;5072941;28;20418;-78
2022/06/21 12:11:08;;;;;;;5.13;1.58;;;29.50;41.10;;;;;;5055932;28;20108;-81
2022/06/21 12:13:49;;;;;;;3.53;2.05;;;29.30;41.40;;;;;;5058551;28;20024;-86
2022/06/21 12:16:28;;;;;;;2.95;1.50;;;29.50;42.10;;;;;;5058360;28;20056;-80
2022/06/21 12:19:03;;;;;;;4.55;1.50;;;29.60;42.00;;;;;;5054025;28;20029;-78
2022/06/21 12:21:32;;;;;;;3.88;1.52;;;29.30;41.70;;;;;;5058296;28;20089;-79
2022/06/21 12:24:08;;;;;;;4.97;1.77;;;29.50;41.40;;;;;;5076443;28;20021;-79
2022/06/21 12:26:36;;;;;;;4.00;1.80;;;29.70;42.20;;;;;;5058781;28;20390;-81
2022/06/21 12:29:06;;;;;;;3.92;1.60;;;29.70;41.90;;;;;;5075832;28;20098;-78
2022/06/21 12:31:39;;;;;;;15.13;13.88;;;29.90;41.80;;;;;;5058202;28;20111;-78
2022/06/21 12:34:05;;;;;;;7.97;2.17;;;30.40;43.30;;;;;;5058212;28;20028;-78
2022/06/21 12:37:03;;;;;;;4.13;1.73;;;30.50;40.90;;;;;;5057810;28;20378;-78
2022/06/21 12:39:48;;;;;;;3.25;1.80;;;30.20;41.50;;;;;;4977970;28;20034;-80
2022/06/21 12:42:42;;;;;;;3.53;1.70;;;30.50;41.00;;;;;;4978347;28;20035;-79
2022/06/21 12:45:45;;;;;;;4.43;1.80;;;30.70;43.10;;;;;;4978354;28;20465;-78
2022/06/21 12:48:50;;;;;;;4.90;1.85;;;30.60;40.90;;;;;;4994471;28;20039;-79
2022/06/21 12:51:43;;;;;;;4.60;1.75;;;30.50;41.90;;;;;;4994765;28;20042;-79
2022/06/21 12:54:33;;;;;;;4.72;1.80;;;30.70;41.60;;;;;;4978967;28;20054;-86
2022/06/21 12:57:02;;;;;;;4.28;1.70;;;30.30;41.00;;;;;;4994822;28;20088;-82
2022/06/21 12:59:40;;;;;;;6.53;1.90;;;29.60;40.60;;;;;;4978355;28;20592;-86
2022/06/21 13:02:35;;;;;;;4.07;1.60;;;29.60;41.20;;;;;;4994986;28;20133;-84
2022/06/21 13:05:30;;;;;;;3.33;1.50;;;29.60;41.20;;;;;;4978174;28;20022;-77
2022/06/21 13:08:07;;;;;;;4.43;1.52;;;30.10;42.10;;;;;;4994633;28;20613;-78
2022/06/21 13:10:51;;;;;;;3.75;1.50;;;30.40;40.70;;;;;;4994432;28;20421;-85
2022/06/21 13:14:07;;;;;;;5.13;1.58;;;30.60;40.70;;;;;;4994250;28;20033;-84
2022/06/21 13:16:38;;;;;;;3.15;1.70;;;30.70;41.80;;;;;;5000871;28;20496;-80
2022/06/21 13:19:40;;;;;;;11.55;1.80;;;30.90;39.20;;;;;;5013789;28;20037;-79
2022/06/21 13:22:39;;;;;;;4.65;2.00;;;30.10;39.60;;;;;;5013075;28;20029;-85
2022/06/21 13:25:13;;;;;;;2.78;1.45;;;30.10;40.10;;;;;;4974718;28;20123;-76
2022/06/21 13:27:54;;;;;;;4.57;1.52;;;30.30;40.40;;;;;;4973953;28;20139;-86
2022/06/21 13:30:42;;;;;;;;;;;30.50;39.50;;;;;;4974515;28;20070;-80
2022/06/21 13:33:17;;;;;;;7.55;1.60;;;30.10;39.90;;;;;;4974596;28;20349;-81
2022/06/21 13:35:55;;;;;;;3.30;1.60;;;29.60;40.20;;;;;;4958512;28;20061;-82
2022/06/21 13:38:37;;;;;;;4.22;1.50;;;29.80;40.10;;;;;;4974015;28;20117;-81
2022/06/21 13:42:37;;;;;;;4.75;1.50;;;29.90;40.70;;;;;;4974160;28;20042;-84
2022/06/21 13:43:59;;;;;;;2.22;1.20;;;29.80;39.30;;;;;;4974488;28;20031;-80
2022/06/21 13:46:33;;;;;;;4.72;1.50;;;30.00;39.50;;;;;;4973977;28;20378;-79
2022/06/21 13:49:36;;;;;;;3.30;1.40;;;30.40;40.80;;;;;;4957676;28;20114;-77
2022/06/21 13:52:29;;;;;;;5.30;1.60;;;30.00;40.10;;;;;;4973792;28;20042;-79
2022/06/21 13:55:26;;;;;;;4.78;1.52;;;30.00;39.20;;;;;;4957426;28;20042;-79
2022/06/21 13:58:01;;;;;;;2.35;1.40;;;30.10;40.70;;;;;;4973838;28;20062;-78